createdAt,value
2023-02-24T00:00:39.712Z,1003.12
2023-02-24T00:03:12.788Z,1003.10
2023-02-24T00:05:45.962Z,1003.07
2023-02-24T00:08:19.709Z,1003.02
2023-02-24T00:10:52.695Z,1002.99
2023-02-24T00:13:25.885Z,1002.97
2023-02-24T00:15:59.908Z,1002.97
2023-02-24T00:18:32.810Z,1002.96
2023-02-24T00:21:05.605Z,1002.95
2023-02-24T00:23:38.688Z,1002.93
2023-02-24T00:26:12.004Z,1002.92
2023-02-24T00:28:45.765Z,1002.89
2023-02-24T00:31:18.689Z,1002.85
2023-02-24T00:33:51.768Z,1002.83
2023-02-24T00:36:24.641Z,1002.80
2023-02-24T00:38:57.838Z,1002.79
2023-02-24T00:41:30.736Z,1002.76
2023-02-24T00:44:03.623Z,1002.73
2023-02-24T00:46:36.531Z,1002.70
2023-02-24T00:49:09.923Z,1002.66
2023-02-24T00:51:42.531Z,1002.65
2023-02-24T00:54:15.675Z,1002.61
2023-02-24T00:56:48.732Z,1002.60
2023-02-24T00:59:21.798Z,1002.59
2023-02-24T01:01:55.086Z,1002.57
2023-02-24T01:04:28.866Z,1002.53
2023-02-24T01:07:02.075Z,1002.51
2023-02-24T01:09:35.844Z,1002.49
2023-02-24T01:12:09.005Z,1002.47
2023-02-24T01:14:41.545Z,1002.44
2023-02-24T01:17:14.838Z,1002.43
2023-02-24T01:19:47.621Z,1002.39
2023-02-24T01:22:20.689Z,1002.34
2023-02-24T01:24:53.904Z,1002.32
2023-02-24T01:27:26.954Z,1002.29
2023-02-24T01:29:59.869Z,1002.26
2023-02-24T01:32:32.637Z,1002.25
2023-02-24T01:35:05.908Z,1002.22
2023-02-24T01:37:38.588Z,1002.21
2023-02-24T01:40:11.923Z,1002.20
2023-02-24T01:42:44.757Z,1002.22
2023-02-24T01:45:17.844Z,1002.21
2023-02-24T01:47:50.934Z,1002.20
2023-02-24T01:50:23.981Z,1002.19
2023-02-24T01:52:56.842Z,1002.17
2023-02-24T01:55:29.885Z,1002.15
2023-02-24T01:58:02.973Z,1002.11
2023-02-24T02:00:35.716Z,1002.09
2023-02-24T02:03:08.944Z,1002.06
2023-02-24T02:05:41.891Z,1002.05
2023-02-24T02:08:14.867Z,1002.05
2023-02-24T02:10:47.640Z,1002.04
2023-02-24T02:13:21.216Z,1002.02
2023-02-24T02:15:53.994Z,1002.00
2023-02-24T02:18:26.977Z,1001.96
2023-02-24T02:20:59.986Z,1001.95
2023-02-24T02:23:32.794Z,1001.94
2023-02-24T02:26:06.142Z,1001.90
2023-02-24T02:28:40.027Z,1001.87
2023-02-24T02:31:13.113Z,1001.83
2023-02-24T02:33:45.940Z,1001.81
2023-02-24T02:36:19.128Z,1001.80
2023-02-24T02:38:52.988Z,1001.79
2023-02-24T02:41:26.158Z,1001.77
2023-02-24T02:43:59.935Z,1001.76
2023-02-24T02:46:33.120Z,1001.73
2023-02-24T02:49:06.970Z,1001.71
2023-02-24T02:51:39.956Z,1001.69
2023-02-24T02:54:12.944Z,1001.66
2023-02-24T02:56:45.990Z,1001.63
2023-02-24T02:59:18.720Z,1001.61
2023-02-24T03:01:51.692Z,1001.58
2023-02-24T03:04:24.801Z,1001.56
2023-02-24T03:06:57.968Z,1001.54
2023-02-24T03:09:30.807Z,1001.53
2023-02-24T03:12:03.854Z,1001.49
2023-02-24T03:14:36.935Z,1001.48
2023-02-24T03:17:09.885Z,1001.46
2023-02-24T03:19:42.934Z,1001.45
2023-02-24T03:22:15.833Z,1001.47
2023-02-24T03:24:48.710Z,1001.47
2023-02-24T03:27:21.905Z,1001.47
2023-02-24T03:29:55.165Z,1001.44
2023-02-24T03:32:28.240Z,1001.41
2023-02-24T03:35:00.870Z,1001.38
2023-02-24T03:37:34.158Z,1001.36
2023-02-24T03:40:07.072Z,1001.35
2023-02-24T03:42:40.116Z,1001.32
2023-02-24T03:45:13.119Z,1001.30
2023-02-24T03:47:46.140Z,1001.28
2023-02-24T03:50:19.037Z,1001.25
2023-02-24T03:52:51.801Z,1001.23
2023-02-24T03:55:25.075Z,1001.21
2023-02-24T03:57:58.085Z,1001.19
2023-02-24T04:00:31.087Z,1001.17
2023-02-24T04:03:04.012Z,1001.17
2023-02-24T04:05:37.120Z,1001.15
2023-02-24T04:08:10.115Z,1001.14
2023-02-24T04:10:43.038Z,1001.13
2023-02-24T04:13:15.982Z,1001.13
2023-02-24T04:15:48.939Z,1001.11
2023-02-24T04:18:22.090Z,1001.11
2023-02-24T04:20:55.114Z,1001.11
2023-02-24T04:23:28.005Z,1001.11
2023-02-24T04:26:00.916Z,1001.11
2023-02-24T04:28:34.151Z,1001.07
2023-02-24T04:31:07.133Z,1001.05
2023-02-24T04:33:43.096Z,1001.03
2023-02-24T04:36:15.995Z,1000.99
2023-02-24T04:38:48.848Z,1000.94
2023-02-24T04:41:22.395Z,1000.91
2023-02-24T04:43:55.150Z,1000.86
2023-02-24T04:46:28.273Z,1000.84
2023-02-24T04:49:01.159Z,1000.81
2023-02-24T04:51:34.358Z,1000.78
2023-02-24T04:54:07.878Z,1000.73
2023-02-24T04:56:41.190Z,1000.67
2023-02-24T04:59:16.883Z,1000.62
2023-02-24T05:01:49.883Z,1000.58
2023-02-24T05:04:23.060Z,1000.54
2023-02-24T05:06:55.889Z,1000.50
2023-02-24T05:09:29.098Z,1000.46
2023-02-24T05:12:02.219Z,1000.42
2023-02-24T05:14:35.193Z,1000.40
2023-02-24T05:17:08.077Z,1000.36
2023-02-24T05:19:41.233Z,1000.34
2023-02-24T05:22:14.259Z,1000.30
2023-02-24T05:24:47.245Z,1000.28
2023-02-24T05:27:20.391Z,1000.25
2023-02-24T05:29:55.459Z,1000.23
2023-02-24T05:32:27.437Z,1000.19
2023-02-24T05:35:01.163Z,1000.17
2023-02-24T05:37:34.260Z,1000.15
2023-02-24T05:40:07.202Z,1000.13
2023-02-24T05:42:40.101Z,1000.10
2023-02-24T05:45:12.939Z,1000.06
2023-02-24T05:47:46.275Z,1000.06
2023-02-24T05:50:19.005Z,1000.04
2023-02-24T05:52:51.985Z,1000.02
2023-02-24T05:55:25.104Z,1000.00
2023-02-24T05:57:58.149Z,999.98
2023-02-24T06:00:31.273Z,999.98
2023-02-24T06:03:04.216Z,999.95
2023-02-24T06:05:37.066Z,999.91
2023-02-24T06:08:10.339Z,999.89
2023-02-24T06:10:43.155Z,999.87
2023-02-24T06:13:15.989Z,999.87
2023-02-24T06:15:49.085Z,999.87
2023-02-24T06:18:22.274Z,999.87
2023-02-24T06:20:54.987Z,999.87
2023-02-24T06:23:28.220Z,999.88
2023-02-24T06:26:01.239Z,999.86
2023-02-24T06:28:34.461Z,999.85
2023-02-24T06:31:08.356Z,999.84
2023-02-24T06:33:41.307Z,999.82
2023-02-24T06:36:14.349Z,999.81
2023-02-24T06:38:47.364Z,999.79
2023-02-24T06:41:20.376Z,999.79
2023-02-24T06:43:56.830Z,999.79
2023-02-24T06:46:30.210Z,999.78
2023-02-24T06:49:03.145Z,999.79
2023-02-24T06:51:36.159Z,999.81
2023-02-24T06:54:09.553Z,999.81
2023-02-24T06:56:43.054Z,999.81
2023-02-24T06:59:16.086Z,999.82
2023-02-24T07:01:49.180Z,999.80
2023-02-24T07:04:22.151Z,999.80
2023-02-24T07:06:55.055Z,999.81
2023-02-24T07:09:28.174Z,999.78
2023-02-24T07:12:01.368Z,999.77
2023-02-24T07:14:34.070Z,999.77
2023-02-24T07:17:07.070Z,999.77
2023-02-24T07:19:40.395Z,999.78
2023-02-24T07:22:13.341Z,999.80
2023-02-24T07:24:46.724Z,999.79
2023-02-24T07:27:20.143Z,999.79
2023-02-24T07:29:53.875Z,999.80
2023-02-24T07:32:26.239Z,999.80
2023-02-24T07:34:59.364Z,999.79
2023-02-24T07:37:32.275Z,999.78
2023-02-24T07:40:05.096Z,999.79
2023-02-24T07:42:38.292Z,999.78
2023-02-24T07:45:11.374Z,999.77
2023-02-24T07:47:44.347Z,999.77
2023-02-24T07:50:17.146Z,999.76
2023-02-24T07:52:50.365Z,999.73
2023-02-24T07:55:23.430Z,999.71
2023-02-24T07:57:56.409Z,999.71
2023-02-24T08:00:29.500Z,999.69
2023-02-24T08:03:02.111Z,999.67
2023-02-24T08:05:35.646Z,999.64
2023-02-24T08:08:09.563Z,999.60
2023-02-24T08:10:42.444Z,999.58
2023-02-24T08:13:15.486Z,999.54
2023-02-24T08:15:48.575Z,999.50
2023-02-24T08:18:21.435Z,999.48
2023-02-24T08:20:54.617Z,999.44
2023-02-24T08:23:27.643Z,999.41
2023-02-24T08:26:01.518Z,999.40
2023-02-24T08:28:34.530Z,999.38
2023-02-24T08:31:07.552Z,999.37
2023-02-24T08:33:40.506Z,999.35
2023-02-24T08:36:13.612Z,999.33
2023-02-24T08:38:46.503Z,999.30
2023-02-24T08:41:19.831Z,999.29
2023-02-24T08:43:52.477Z,999.26
2023-02-24T08:46:39.562Z,999.24
2023-02-24T08:49:12.504Z,999.21
2023-02-24T08:51:45.629Z,999.18
2023-02-24T08:54:18.456Z,999.16
2023-02-24T08:56:51.550Z,999.14
2023-02-24T08:59:24.528Z,999.12
2023-02-24T09:02:04.637Z,999.10
2023-02-24T09:04:30.584Z,999.09
2023-02-24T09:07:11.562Z,999.05
2023-02-24T09:09:36.732Z,999.03
2023-02-24T09:12:10.722Z,999.01
2023-02-24T09:14:44.393Z,998.98
2023-02-24T09:17:17.510Z,998.94
2023-02-24T09:19:50.431Z,998.90
2023-02-24T09:22:26.690Z,998.87
2023-02-24T09:24:59.620Z,998.84
2023-02-24T09:27:32.585Z,998.82
2023-02-24T09:30:05.261Z,998.82
2023-02-24T09:32:38.887Z,998.80
2023-02-24T09:35:11.467Z,998.78
2023-02-24T09:37:44.700Z,998.77
2023-02-24T09:40:17.596Z,998.74
2023-02-24T09:42:50.701Z,998.72
2023-02-24T09:45:23.598Z,998.70
2023-02-24T09:47:57.304Z,998.69
2023-02-24T09:50:58.951Z,998.67
2023-02-24T09:53:11.148Z,998.63
2023-02-24T09:55:37.825Z,998.59
2023-02-24T09:58:11.627Z,998.55
2023-02-24T10:00:44.577Z,998.51
2023-02-24T10:03:17.366Z,998.49
2023-02-24T10:05:50.576Z,998.45
2023-02-24T10:08:37.530Z,998.43
2023-02-24T10:11:10.405Z,998.39
2023-02-24T10:13:43.589Z,998.36
2023-02-24T10:16:16.420Z,998.34
2023-02-24T10:18:49.523Z,998.29
2023-02-24T10:21:22.650Z,998.27
2023-02-24T10:23:56.083Z,998.24
2023-02-24T10:26:28.663Z,998.24
2023-02-24T10:29:03.179Z,998.21
2023-02-24T10:31:43.022Z,998.19
2023-02-24T10:34:15.393Z,998.18
2023-02-24T10:36:48.651Z,998.13
2023-02-24T10:39:21.665Z,998.09
2023-02-24T10:41:54.743Z,998.05
2023-02-24T10:44:27.894Z,998.04
2023-02-24T10:47:02.019Z,997.99
2023-02-24T10:49:35.719Z,997.95
2023-02-24T10:52:08.714Z,997.91
2023-02-24T10:54:41.711Z,997.86
2023-02-24T10:57:14.517Z,997.80
2023-02-24T10:59:47.851Z,997.76
2023-02-24T11:02:20.721Z,997.71
2023-02-24T11:04:53.739Z,997.67
2023-02-24T11:07:26.747Z,997.62
2023-02-24T11:09:59.796Z,997.57
2023-02-24T11:12:32.787Z,997.53
2023-02-24T11:15:05.688Z,997.49
2023-02-24T11:17:38.767Z,997.44
2023-02-24T11:20:11.683Z,997.40
2023-02-24T11:22:44.849Z,997.37
2023-02-24T11:25:17.740Z,997.31
2023-02-24T11:27:50.562Z,997.25
2023-02-24T11:30:23.809Z,997.19
2023-02-24T11:32:56.984Z,997.15
2023-02-24T11:35:29.594Z,997.09
2023-02-24T11:38:02.594Z,997.03
2023-02-24T11:40:35.605Z,996.99
2023-02-24T11:43:08.727Z,996.93
2023-02-24T11:45:41.788Z,996.89
2023-02-24T11:48:14.478Z,996.84
2023-02-24T11:50:47.476Z,996.78
2023-02-24T11:53:20.666Z,996.74
2023-02-24T11:55:53.622Z,996.67
2023-02-24T11:58:26.903Z,996.62
2023-02-24T12:01:00.042Z,996.58
2023-02-24T12:03:33.907Z,996.52
2023-02-24T12:06:06.861Z,996.47
2023-02-24T12:08:39.850Z,996.43
2023-02-24T12:11:12.823Z,996.37
2023-02-24T12:13:45.852Z,996.32
2023-02-24T12:16:18.868Z,996.25
2023-02-24T12:18:51.830Z,996.21
2023-02-24T12:21:25.216Z,996.16
2023-02-24T12:23:57.881Z,996.12
2023-02-24T12:26:30.646Z,996.07
2023-02-24T12:29:03.632Z,996.03
2023-02-24T12:31:36.901Z,995.98
2023-02-24T12:34:09.735Z,995.95
2023-02-24T12:36:42.952Z,995.89
2023-02-24T12:39:15.552Z,995.84
2023-02-24T12:41:48.798Z,995.79
2023-02-24T12:44:22.030Z,995.76
2023-02-24T12:46:55.649Z,995.72
2023-02-24T12:49:28.708Z,995.68
2023-02-24T12:52:01.822Z,995.64
2023-02-24T12:54:34.825Z,995.57
2023-02-24T12:57:07.609Z,995.52
2023-02-24T12:59:40.565Z,995.49
2023-02-24T13:02:19.566Z,995.40
2023-02-24T13:04:52.710Z,995.35
2023-02-24T13:07:25.695Z,995.28
2023-02-24T13:09:58.779Z,995.21
2023-02-24T13:12:31.857Z,995.14
2023-02-24T13:15:04.852Z,995.09
2023-02-24T13:17:37.736Z,995.04
2023-02-24T13:20:10.988Z,994.98
2023-02-24T13:22:43.859Z,994.93
2023-02-24T13:25:16.824Z,994.89
2023-02-24T13:27:50.040Z,994.84
2023-02-24T13:30:23.142Z,994.81
2023-02-24T13:32:57.152Z,994.77
2023-02-24T13:35:30.771Z,994.73
2023-02-24T13:38:17.702Z,994.68
2023-02-24T13:40:50.963Z,994.64
2023-02-24T13:43:23.981Z,994.59
2023-02-24T13:45:56.904Z,994.54
2023-02-24T13:48:29.924Z,994.51
2023-02-24T13:51:02.653Z,994.48
2023-02-24T13:53:35.988Z,994.47
2023-02-24T13:56:08.836Z,994.45
2023-02-24T13:58:42.041Z,994.42
2023-02-24T14:01:14.762Z,994.41
2023-02-24T14:03:47.766Z,994.39
2023-02-24T14:06:21.347Z,994.38
2023-02-24T14:08:54.468Z,994.36
2023-02-24T14:11:27.690Z,994.34
2023-02-24T14:14:00.996Z,994.33
2023-02-24T14:16:33.836Z,994.31
2023-02-24T14:19:06.704Z,994.31
2023-02-24T14:21:40.121Z,994.30
2023-02-24T14:24:12.709Z,994.27
2023-02-24T14:26:45.730Z,994.25
2023-02-24T14:29:18.758Z,994.23
2023-02-24T14:31:52.235Z,994.19
2023-02-24T14:34:24.984Z,994.15
2023-02-24T14:36:58.128Z,994.13
2023-02-24T14:39:34.852Z,994.10
2023-02-24T14:42:07.721Z,994.07
2023-02-24T14:44:40.774Z,994.04
2023-02-24T14:47:13.756Z,994.01
2023-02-24T14:49:47.032Z,993.98
2023-02-24T14:52:20.137Z,993.96
2023-02-24T14:54:52.791Z,993.93
2023-02-24T14:57:26.157Z,993.90
2023-02-24T14:59:59.145Z,993.87
2023-02-24T15:02:31.778Z,993.86
2023-02-24T15:05:04.921Z,993.83
2023-02-24T15:07:37.890Z,993.82
2023-02-24T15:10:10.771Z,993.81
2023-02-24T15:12:43.920Z,993.80
2023-02-24T15:15:17.110Z,993.77
2023-02-24T15:17:50.137Z,993.74
2023-02-24T15:20:23.350Z,993.71
2023-02-24T15:22:56.856Z,993.69
2023-02-24T15:25:41.983Z,993.65
2023-02-24T15:28:03.002Z,993.61
2023-02-24T15:30:36.036Z,993.57
2023-02-24T15:33:08.817Z,993.53
2023-02-24T15:35:42.120Z,993.50
2023-02-24T15:38:15.090Z,993.47
2023-02-24T15:40:48.101Z,993.44
2023-02-24T15:43:20.913Z,993.42
2023-02-24T15:45:54.169Z,993.37
2023-02-24T15:48:27.159Z,993.34
2023-02-24T15:51:03.954Z,993.32
2023-02-24T15:53:51.200Z,993.29
2023-02-24T15:56:24.431Z,993.26
2023-02-24T15:58:56.994Z,993.26
2023-02-24T16:01:32.920Z,993.25
2023-02-24T16:04:19.838Z,993.24
2023-02-24T16:06:53.049Z,993.23
2023-02-24T16:09:25.991Z,993.22
2023-02-24T16:11:59.370Z,993.21
2023-02-24T16:14:32.959Z,993.19
2023-02-24T16:17:06.021Z,993.18
2023-02-24T16:19:38.991Z,993.17
2023-02-24T16:22:11.876Z,993.16
2023-02-24T16:24:45.014Z,993.14
2023-02-24T16:27:18.114Z,993.13
2023-02-24T16:29:51.160Z,993.14
2023-02-24T16:32:24.354Z,993.13
2023-02-24T16:34:57.295Z,993.14
2023-02-24T16:37:29.908Z,993.14
2023-02-24T16:40:03.182Z,993.15
2023-02-24T16:42:36.744Z,993.14
2023-02-24T16:45:09.899Z,993.16
2023-02-24T16:47:43.070Z,993.17
2023-02-24T16:50:15.908Z,993.15
2023-02-24T16:52:49.023Z,993.14
2023-02-24T16:55:22.022Z,993.14
2023-02-24T16:57:55.307Z,993.13
2023-02-24T17:00:28.415Z,993.13
2023-02-24T17:03:02.286Z,993.13
2023-02-24T17:05:35.259Z,993.13
2023-02-24T17:08:08.206Z,993.14
2023-02-24T17:10:41.307Z,993.14
2023-02-24T17:13:13.981Z,993.15
2023-02-24T17:15:47.351Z,993.17
2023-02-24T17:18:21.555Z,993.19
2023-02-24T17:20:53.064Z,993.21
2023-02-24T17:23:26.270Z,993.24
2023-02-24T17:25:58.996Z,993.26
2023-02-24T17:28:32.312Z,993.28
2023-02-24T17:31:05.297Z,993.31
2023-02-24T17:33:38.119Z,993.34
2023-02-24T17:36:11.011Z,993.36
2023-02-24T17:38:44.218Z,993.40
2023-02-24T17:41:16.966Z,993.42
2023-02-24T17:43:50.341Z,993.43
2023-02-24T17:46:23.502Z,993.46
2023-02-24T17:49:00.185Z,993.48
2023-02-24T17:51:32.987Z,993.51
2023-02-24T17:54:06.155Z,993.56
2023-02-24T17:56:39.085Z,993.59
2023-02-24T17:59:12.069Z,993.63
2023-02-24T18:01:45.180Z,993.68
2023-02-24T18:04:18.769Z,993.73
2023-02-24T18:06:52.171Z,993.79
2023-02-24T18:09:25.216Z,993.82
2023-02-24T18:11:58.287Z,993.85
2023-02-24T18:14:31.190Z,993.89
2023-02-24T18:17:04.032Z,993.93
2023-02-24T18:19:37.193Z,993.98
2023-02-24T18:22:10.043Z,994.01
2023-02-24T18:24:43.194Z,994.04
2023-02-24T18:27:16.047Z,994.07
2023-02-24T18:29:49.264Z,994.08
2023-02-24T18:32:22.291Z,994.08
2023-02-24T18:34:55.216Z,994.10
2023-02-24T18:37:28.394Z,994.12
2023-02-24T18:40:01.610Z,994.14
2023-02-24T18:42:35.158Z,994.14
2023-02-24T18:45:08.231Z,994.14
2023-02-24T18:47:41.454Z,994.13
2023-02-24T18:50:14.386Z,994.12
2023-02-24T18:52:47.107Z,994.12
2023-02-24T18:55:20.196Z,994.11
2023-02-24T18:57:53.299Z,994.11
2023-02-24T19:00:26.267Z,994.12
2023-02-24T19:02:59.478Z,994.14
2023-02-24T19:05:38.380Z,994.16
2023-02-24T19:08:05.266Z,994.18
2023-02-24T19:10:38.273Z,994.20
2023-02-24T19:13:11.392Z,994.21
2023-02-24T19:15:44.284Z,994.23
2023-02-24T19:18:17.152Z,994.26
2023-02-24T19:20:50.489Z,994.29
2023-02-24T19:23:23.362Z,994.33
2023-02-24T19:25:56.253Z,994.34
2023-02-24T19:28:29.674Z,994.37
2023-02-24T19:31:03.530Z,994.37
2023-02-24T19:33:36.269Z,994.38
2023-02-24T19:36:09.406Z,994.38
2023-02-24T19:38:42.288Z,994.39
2023-02-24T19:41:15.418Z,994.39
2023-02-24T19:43:48.523Z,994.37
2023-02-24T19:46:22.099Z,994.36
2023-02-24T19:48:54.475Z,994.35
2023-02-24T19:51:27.471Z,994.33
2023-02-24T19:54:00.370Z,994.33
2023-02-24T19:56:33.555Z,994.33
2023-02-24T19:59:06.278Z,994.30
2023-02-24T20:01:39.616Z,994.30
2023-02-24T20:04:12.485Z,994.33
2023-02-24T20:06:45.473Z,994.35
2023-02-24T20:09:18.481Z,994.36
2023-02-24T20:11:51.605Z,994.37
2023-02-24T20:14:24.382Z,994.38
2023-02-24T20:16:57.647Z,994.40
2023-02-24T20:19:30.599Z,994.41
2023-02-24T20:22:03.530Z,994.41
2023-02-24T20:24:36.798Z,994.41
2023-02-24T20:27:14.062Z,994.40
2023-02-24T20:29:47.238Z,994.40
2023-02-24T20:32:20.787Z,994.39
2023-02-24T20:34:53.373Z,994.38
2023-02-24T20:37:26.838Z,994.38
2023-02-24T20:40:00.575Z,994.37
2023-02-24T20:42:33.313Z,994.38
2023-02-24T20:45:06.637Z,994.38
2023-02-24T20:47:39.669Z,994.36
2023-02-24T20:50:12.454Z,994.34
2023-02-24T20:52:45.441Z,994.31
2023-02-24T20:55:18.709Z,994.30
2023-02-24T20:57:52.512Z,994.30
2023-02-24T21:00:25.478Z,994.32
2023-02-24T21:02:58.543Z,994.33
2023-02-24T21:05:31.431Z,994.32
2023-02-24T21:08:04.549Z,994.32
2023-02-24T21:10:37.782Z,994.29
2023-02-24T21:13:11.296Z,994.26
2023-02-24T21:15:44.655Z,994.25
2023-02-24T21:18:17.328Z,994.24
2023-02-24T21:20:50.615Z,994.22
2023-02-24T21:23:23.690Z,994.23
2023-02-24T21:25:56.399Z,994.24
2023-02-24T21:28:29.608Z,994.22
2023-02-24T21:31:02.473Z,994.21
2023-02-24T21:33:35.667Z,994.22
2023-02-24T21:36:08.592Z,994.23
2023-02-24T21:38:41.564Z,994.26
2023-02-24T21:41:14.761Z,994.26
2023-02-24T21:43:47.706Z,994.26
2023-02-24T21:46:21.117Z,994.26
2023-02-24T21:48:59.740Z,994.24
2023-02-24T21:51:32.644Z,994.23
2023-02-24T21:54:05.666Z,994.21
2023-02-24T21:56:38.705Z,994.20
2023-02-24T21:59:11.632Z,994.18
2023-02-24T22:01:44.988Z,994.19
2023-02-24T22:04:18.391Z,994.21
2023-02-24T22:06:51.734Z,994.25
2023-02-24T22:09:24.899Z,994.26
2023-02-24T22:11:58.685Z,994.28
2023-02-24T22:14:31.695Z,994.29
2023-02-24T22:17:04.693Z,994.29
2023-02-24T22:19:37.845Z,994.30
2023-02-24T22:22:11.703Z,994.29
2023-02-24T22:24:44.766Z,994.30
2023-02-24T22:27:17.728Z,994.30
2023-02-24T22:29:50.758Z,994.28
2023-02-24T22:32:23.737Z,994.27
2023-02-24T22:34:56.475Z,994.26
2023-02-24T22:37:29.958Z,994.27
2023-02-24T22:40:02.836Z,994.29
2023-02-24T22:42:35.782Z,994.32
2023-02-24T22:45:08.518Z,994.36
2023-02-24T22:47:41.812Z,994.40
2023-02-24T22:50:14.448Z,994.44
2023-02-24T22:52:47.735Z,994.47
2023-02-24T22:55:20.471Z,994.49
2023-02-24T22:57:53.641Z,994.53
2023-02-24T23:00:26.881Z,994.57
2023-02-24T23:02:59.567Z,994.61
2023-02-24T23:05:32.850Z,994.66
2023-02-24T23:08:05.918Z,994.71
2023-02-24T23:10:39.958Z,994.76
2023-02-24T23:13:13.799Z,994.79
2023-02-24T23:15:46.858Z,994.81
2023-02-24T23:18:19.770Z,994.81
2023-02-24T23:20:52.847Z,994.82
2023-02-24T23:23:25.872Z,994.83
2023-02-24T23:25:58.818Z,994.86
2023-02-24T23:28:31.892Z,994.91
2023-02-24T23:31:04.874Z,994.96
2023-02-24T23:33:37.890Z,994.99
2023-02-24T23:36:10.920Z,995.02
2023-02-24T23:38:43.652Z,995.05
2023-02-24T23:41:16.814Z,995.07
2023-02-24T23:43:49.828Z,995.11
2023-02-24T23:46:23.062Z,995.13
2023-02-24T23:48:56.081Z,995.15
2023-02-24T23:51:45.829Z,995.20
2023-02-24T23:54:02.836Z,995.23
2023-02-24T23:56:35.898Z,995.24
2023-02-24T23:59:08.910Z,995.26
